Time;durP1;ratioP1;P1;durP2;ratioP2;P2;SDS_P1;SDS_P2;PMS_P1;PMS_P2;Temp;Humidity;BMP_temperature;BMP_pressure;BME280_temperature;BME280_humidity;BME280_pressure;Samples;Min_cycle;Max_cycle;Signal;HPM_P1;HPM_P2
2022/11/02 05:00:32;;;;;;;3.33;2.65;;;;;;;;;;6131165;23;20404;31
2022/11/02 05:02:58;;;;;;;5.32;2.72;;;;;;;;;;4993661;28;20915;-85
2022/11/02 05:05:30;;;;;;;2.92;2.58;;;;;;;;;;4982827;28;20432;-85
2022/11/02 05:07:59;;;;;;;2.17;1.98;;;;;;;;;;5001020;28;20412;-85
2022/11/02 05:10:25;;;;;;;2.67;2.13;;;;;;;;;;5014243;28;20388;-84
2022/11/02 05:12:58;;;;;;;4.35;2.20;;;;;;;;;;5033710;28;20379;-85
2022/11/02 05:15:24;;;;;;;2.70;2.20;;;;;;;;;;5022181;28;20381;-84
2022/11/02 05:17:53;;;;;;;2.53;1.88;;;;;;;;;;5032620;28;20380;-84
2022/11/02 05:20:19;;;;;;;3.03;2.10;;;;;;;;;;5030481;28;20513;-83
2022/11/02 05:22:45;;;;;;;3.08;1.90;;;;;;;;;;5033407;28;20454;-84
2022/11/02 05:25:14;;;;;;;2.42;2.10;;;;;;;;;;5033377;28;20802;-84
2022/11/02 05:27:40;;;;;;;2.88;1.92;;;;;;;;;;5033466;28;20882;-84
2022/11/02 05:30:06;;;;;;;3.30;1.95;;;;;;;;;;5033113;28;20485;-84
2022/11/02 05:32:32;;;;;;;2.67;1.58;;;;;;;;;;5025689;28;20727;-85
2022/11/02 05:35:01;;;;;;;2.80;1.60;;;;;;;;;;5030362;28;20398;-84
2022/11/02 05:37:27;;;;;;;2.35;1.95;;;;;;;;;;5033360;28;20775;-84
2022/11/02 05:39:53;;;;;;;3.50;2.13;;;;;;;;;;5032110;28;20461;-85
2022/11/02 05:42:19;;;;;;;2.83;2.40;;;;;;;;;;5030420;28;20434;-83
2022/11/02 05:44:48;;;;;;;2.38;2.10;;;;;;;;;;5033251;28;20379;-82
2022/11/02 05:47:14;;;;;;;2.10;1.90;;;;;;;;;;5032865;28;20387;-83
2022/11/02 05:49:40;;;;;;;2.65;1.80;;;;;;;;;;5032763;28;20411;-84
2022/11/02 05:52:06;;;;;;;4.35;2.10;;;;;;;;;;5032183;28;20434;-82
2022/11/02 05:54:32;;;;;;;3.50;2.50;;;;;;;;;;5032535;28;20384;-83
2022/11/02 05:56:58;;;;;;;2.78;1.73;;;;;;;;;;5032803;28;20390;-84
2022/11/02 05:59:24;;;;;;;3.10;2.27;;;;;;;;;;5014435;28;20464;-83
2022/11/02 06:01:50;;;;;;;3.38;1.90;;;;;;;;;;5020005;28;20761;-83
2022/11/02 06:04:16;;;;;;;2.30;1.70;;;;;;;;;;5019503;28;20423;-83
2022/11/02 06:06:45;;;;;;;2.60;1.90;;;;;;;;;;5032654;28;20372;-83
2022/11/02 06:09:11;;;;;;;2.88;1.73;;;;;;;;;;5031398;28;20875;-85
2022/11/02 06:11:40;;;;;;;2.92;1.75;;;;;;;;;;5028849;28;20378;-83
2022/11/02 06:14:09;;;;;;;3.42;1.90;;;;;;;;;;5024337;28;20389;-85
2022/11/02 06:16:38;;;;;;;1.93;1.60;;;;;;;;;;5020899;28;20379;-84
2022/11/02 06:19:13;;;;;;;2.25;1.80;;;;;;;;;;5032126;28;20415;-84
2022/11/02 06:21:44;;;;;;;2.08;1.70;;;;;;;;;;5032597;28;20449;-84
2022/11/02 06:24:19;;;;;;;4.22;2.10;;;;;;;;;;5032587;28;20375;-83
2022/11/02 06:26:48;;;;;;;2.38;1.77;;;;;;;;;;5032525;28;20403;-84
2022/11/02 06:29:14;;;;;;;2.10;1.90;;;;;;;;;;5032479;28;20718;-84
2022/11/02 06:31:40;;;;;;;2.42;1.98;;;;;;;;;;5017196;28;20420;-85
2022/11/02 06:34:06;;;;;;;2.40;2.13;;;;;;;;;;5032584;28;20418;-84
2022/11/02 06:36:32;;;;;;;3.45;1.90;;;;;;;;;;5033027;28;20436;-84
2022/11/02 06:38:58;;;;;;;3.50;2.05;;;;;;;;;;5032388;28;20745;-83
2022/11/02 06:41:26;;;;;;;2.63;1.93;;;;;;;;;;5032107;28;20470;-84
2022/11/02 06:43:58;;;;;;;2.38;1.70;;;;;;;;;;5031945;28;20379;-83
2022/11/02 06:46:26;;;;;;;2.90;2.00;;;;;;;;;;5032318;28;20376;-83
2022/11/02 06:49:01;;;;;;;1.98;1.80;;;;;;;;;;5031482;28;20379;-83
2022/11/02 06:51:30;;;;;;;2.67;1.75;;;;;;;;;;5032041;28;20748;-85
2022/11/02 06:53:55;;;;;;;3.83;2.50;;;;;;;;;;5025626;28;20387;-85
2022/11/02 06:56:24;;;;;;;3.80;2.75;;;;;;;;;;5000031;28;20404;-84
2022/11/02 06:58:50;;;;;;;2.40;2.20;;;;;;;;;;5018111;28;20585;-84
2022/11/02 07:01:19;;;;;;;3.65;2.45;;;;;;;;;;5030579;28;20911;-84
2022/11/02 07:03:45;;;;;;;3.75;2.25;;;;;;;;;;5030578;28;20860;-83
2022/11/02 07:06:11;;;;;;;7.30;2.60;;;;;;;;;;5032329;28;20387;-85
2022/11/02 07:08:38;;;;;;;2.90;2.60;;;;;;;;;;5019977;28;20403;-83
2022/11/02 07:11:04;;;;;;;3.17;2.35;;;;;;;;;;5033516;28;20710;-83
2022/11/02 07:13:30;;;;;;;2.70;2.25;;;;;;;;;;5036042;28;20390;-83
2022/11/02 07:15:58;;;;;;;2.78;2.30;;;;;;;;;;5036071;28;20466;-83
2022/11/02 07:18:24;;;;;;;2.75;2.10;;;;;;;;;;5035955;28;20811;-83
2022/11/02 07:21:00;;;;;;;4.25;2.63;;;;;;;;;;5035886;28;20379;-83
2022/11/02 07:23:26;;;;;;;3.50;2.20;;;;;;;;;;5036360;28;20699;-83
2022/11/02 07:25:55;;;;;;;2.55;2.05;;;;;;;;;;5035801;28;20372;-83
2022/11/02 07:28:23;;;;;;;2.35;2.15;;;;;;;;;;5035955;28;20868;-83
2022/11/02 07:30:49;;;;;;;3.65;2.78;;;;;;;;;;5016133;28;20862;-83
2022/11/02 07:33:23;;;;;;;4.07;3.08;;;;;;;;;;5024643;28;20394;-83
2022/11/02 07:35:49;;;;;;;5.20;3.70;;;;;;;;;;5035817;28;20383;-83
2022/11/02 07:38:18;;;;;;;5.25;3.50;;;;;;;;;;5035593;28;20495;-83
2022/11/02 07:40:48;;;;;;;3.70;2.80;;;;;;;;;;5035598;28;20464;-83
2022/11/02 07:43:17;;;;;;;4.07;3.00;;;;;;;;;;5035599;28;20375;-83
2022/11/02 07:45:43;;;;;;;4.97;3.20;;;;;;;;;;5035552;28;20387;-83
2022/11/02 07:48:11;;;;;;;5.30;4.80;;;;;;;;;;5035461;28;20867;-82
2022/11/02 07:50:40;;;;;;;4.35;3.95;;;;;;;;;;5035767;28;20395;-83
2022/11/02 07:53:09;;;;;;;5.45;3.70;;;;;;;;;;5018589;28;20793;-83
2022/11/02 07:55:47;;;;;;;4.70;4.30;;;;;;;;;;5035049;28;20403;-83
2022/11/02 07:58:13;;;;;;;5.60;4.13;;;;;;;;;;5003667;28;20842;-83
2022/11/02 08:00:45;;;;;;;4.00;3.60;;;;;;;;;;5034922;28;20398;-83
2022/11/02 08:03:11;;;;;;;4.53;3.65;;;;;;;;;;5033576;28;20390;-83
2022/11/02 08:05:39;;;;;;;4.72;3.40;;;;;;;;;;5035088;28;20387;-83
2022/11/02 08:08:10;;;;;;;6.33;3.47;;;;;;;;;;5027069;28;20436;-83
2022/11/02 08:10:39;;;;;;;4.70;3.45;;;;;;;;;;5033872;28;20380;-83
2022/11/02 08:13:14;;;;;;;4.40;3.67;;;;;;;;;;5017318;28;20387;-83
2022/11/02 08:15:46;;;;;;;4.97;3.85;;;;;;;;;;5017163;28;20466;-83
2022/11/02 08:18:16;;;;;;;5.15;4.22;;;;;;;;;;5034698;28;20422;-83
2022/11/02 08:20:47;;;;;;;6.38;4.78;;;;;;;;;;5023749;28;20381;-83
2022/11/02 08:23:19;;;;;;;4.53;3.88;;;;;;;;;;5008870;28;20377;-83
2022/11/02 08:25:49;;;;;;;5.30;4.18;;;;;;;;;;5034801;28;20860;-83
2022/11/02 08:28:19;;;;;;;6.45;4.30;;;;;;;;;;5034757;28;20437;-83
2022/11/02 08:30:45;;;;;;;6.78;3.53;;;;;;;;;;5035056;28;20407;-83
2022/11/02 08:33:16;;;;;;;6.25;3.78;;;;;;;;;;5019378;28;20381;-83
2022/11/02 08:35:45;;;;;;;6.40;2.92;;;;;;;;;;5026315;28;20387;-83
2022/11/02 08:38:21;;;;;;;7.00;3.20;;;;;;;;;;5034469;28;20422;-83
2022/11/02 08:40:47;;;;;;;6.07;3.25;;;;;;;;;;5034573;28;20371;-83
2022/11/02 08:43:14;;;;;;;7.80;3.70;;;;;;;;;;5034384;28;20375;-83
2022/11/02 08:45:43;;;;;;;6.47;3.20;;;;;;;;;;5034920;28;20376;-83
2022/11/02 08:48:12;;;;;;;7.70;3.22;;;;;;;;;;5035053;28;20990;-84
2022/11/02 08:50:39;;;;;;;10.55;3.45;;;;;;;;;;5034287;28;20409;-84
2022/11/02 08:53:05;;;;;;;6.30;3.45;;;;;;;;;;5016854;28;20936;-84
2022/11/02 08:55:39;;;;;;;9.75;3.58;;;;;;;;;;5034481;28;20844;-83
2022/11/02 08:58:08;;;;;;;6.60;3.40;;;;;;;;;;5034572;28;20414;-83
2022/11/02 09:00:34;;;;;;;8.70;3.25;;;;;;;;;;5034106;28;20737;-83
2022/11/02 09:03:02;;;;;;;6.40;2.88;;;;;;;;;;5032467;28;20833;-83
2022/11/02 09:05:29;;;;;;;9.67;3.60;;;;;;;;;;5035410;28;20466;-83
2022/11/02 09:07:56;;;;;;;7.45;3.50;;;;;;;;;;5034255;28;20375;-84
2022/11/02 09:10:22;;;;;;;7.50;3.13;;;;;;;;;;5034406;28;20383;-83
2022/11/02 09:12:48;;;;;;;6.00;2.97;;;;;;;;;;5024477;28;20865;-83
2022/11/02 09:15:14;;;;;;;6.35;2.78;;;;;;;;;;5025454;28;20474;-83
2022/11/02 09:17:41;;;;;;;6.55;2.90;;;;;;;;;;5033840;28;20375;-83
2022/11/02 09:20:07;;;;;;;15.40;7.78;;;;;;;;;;5033902;28;20453;-83
2022/11/02 09:22:33;;;;;;;22.55;12.13;;;;;;;;;;5033933;28;20737;-84
2022/11/02 09:24:59;;;;;;;25.10;11.57;;;;;;;;;;5033862;28;20379;-83
2022/11/02 09:27:25;;;;;;;25.03;12.17;;;;;;;;;;5033835;28;20517;-83
2022/11/02 09:29:51;;;;;;;16.98;8.85;;;;;;;;;;5033608;28;20768;-83
2022/11/02 09:32:17;;;;;;;15.57;8.80;;;;;;;;;;5025859;28;20391;-83
2022/11/02 09:34:46;;;;;;;11.80;4.18;;;;;;;;;;5010752;28;20934;-83
2022/11/02 09:37:12;;;;;;;9.98;4.97;;;;;;;;;;5024753;28;20393;-83
2022/11/02 09:39:38;;;;;;;10.13;5.50;;;;;;;;;;5033325;28;20411;-83
2022/11/02 09:42:10;;;;;;;8.43;3.67;;;;;;;;;;5033254;28;20379;-83
2022/11/02 09:44:42;;;;;;;6.78;2.30;;;;;;;;;;5016057;28;20384;-83
2022/11/02 09:47:10;;;;;;;5.93;2.50;;;;;;;;;;5015578;28;20907;-83
2022/11/02 09:49:36;;;;;;;6.43;2.50;;;;;;;;;;5033108;28;20383;-83
2022/11/02 09:52:02;;;;;;;6.40;2.40;;;;;;;;;;5033100;28;20385;-84
2022/11/02 09:54:31;;;;;;;6.45;2.55;;;;;;;;;;5033613;28;20419;-83
2022/11/02 09:56:58;;;;;;;5.28;2.28;;;;;;;;;;5006612;28;20873;-83
2022/11/02 09:59:25;;;;;;;4.75;1.90;;;;;;;;;;5025598;28;20488;-83
2022/11/02 10:01:58;;;;;;;4.57;1.88;;;;;;;;;;5028059;28;20393;-83
2022/11/02 10:04:36;;;;;;;6.32;1.83;;;;;;;;;;5032794;28;20378;-83
2022/11/02 10:07:21;;;;;;;6.07;2.03;;;;;;;;;;5032782;28;20407;-83
2022/11/02 10:09:53;;;;;;;4.43;2.07;;;;;;;;;;5032808;28;20447;-83
2022/11/02 10:12:37;;;;;;;4.80;2.15;;;;;;;;;;5007892;28;20382;-83
2022/11/02 10:15:03;;;;;;;5.97;2.15;;;;;;;;;;5027823;28;20381;-83
2022/11/02 10:17:32;;;;;;;6.93;2.13;;;;;;;;;;5028463;28;20387;-83
2022/11/02 10:20:02;;;;;;;5.13;2.40;;;;;;;;;;5032806;28;20418;-83
2022/11/02 10:22:42;;;;;;;5.78;1.83;;;;;;;;;;5043234;28;20375;-83
2022/11/02 10:25:14;;;;;;;7.28;2.17;;;;;;;;;;5043466;28;20462;-83
2022/11/02 10:27:47;;;;;;;5.82;2.30;;;;;;;;;;5041436;28;20390;-83
2022/11/02 10:30:17;;;;;;;6.20;2.22;;;;;;;;;;5032909;28;20413;-83
2022/11/02 10:32:44;;;;;;;5.22;2.60;;;;;;;;;;5021822;28;20557;-84
2022/11/02 10:35:17;;;;;;;6.30;2.50;;;;;;;;;;5032664;28;20383;-83
2022/11/02 10:37:50;;;;;;;6.75;2.15;;;;;;;;;;5032643;28;20387;-83
2022/11/02 10:40:35;;;;;;;7.20;1.90;;;;;;;;;;5015060;28;20860;-84
2022/11/02 10:43:19;;;;;;;7.55;2.63;;;;;;;;;;5032229;28;20496;-83
2022/11/02 10:45:51;;;;;;;6.90;2.58;;;;;;;;;;5031454;28;20386;-84
2022/11/02 10:48:34;;;;;;;7.90;2.75;;;;;;;;;;5032126;28;20383;-85
2022/11/02 10:51:11;;;;;;;5.55;2.00;;;;;;;;;;5032207;28;20387;-83
2022/11/02 10:54:00;;;;;;;4.57;2.03;;;;;;;;;;5032159;28;20387;-82
2022/11/02 10:56:32;;;;;;;5.57;1.95;;;;;;;;;;5026592;28;20387;-83
2022/11/02 10:59:16;;;;;;;6.53;2.28;;;;;;;;;;5032563;28;20899;-82
2022/11/02 11:02:05;;;;;;;6.03;1.92;;;;;;;;;;5030831;28;20425;-82
2022/11/02 11:04:35;;;;;;;5.07;1.95;;;;;;;;;;5031805;28;20371;-82
2022/11/02 11:07:05;;;;;;;6.80;2.03;;;;;;;;;;5034924;28;20415;-81
2022/11/02 11:09:57;;;;;;;6.57;2.00;;;;;;;;;;5038007;28;20441;-82
2022/11/02 11:12:31;;;;;;;5.60;2.03;;;;;;;;;;5033440;28;20391;-83
2022/11/02 11:14:58;;;;;;;5.28;1.70;;;;;;;;;;5033680;28;20383;-83
2022/11/02 11:17:27;;;;;;;5.38;1.60;;;;;;;;;;5031915;28;20387;-83
2022/11/02 11:19:57;;;;;;;7.32;1.65;;;;;;;;;;5031573;28;20406;-83
2022/11/02 11:22:32;;;;;;;6.05;1.80;;;;;;;;;;5031791;28;20914;-83
2022/11/02 11:25:33;;;;;;;8.23;2.15;;;;;;;;;;5031886;28;20379;-82
2022/11/02 11:28:00;;;;;;;4.82;1.70;;;;;;;;;;4990735;28;20890;-82
2022/11/02 11:30:27;;;;;;;4.85;1.88;;;;;;;;;;4981267;28;20390;-83
2022/11/02 11:32:54;;;;;;;5.70;2.00;;;;;;;;;;4953825;28;20428;-82
2022/11/02 11:35:21;;;;;;;6.32;2.08;;;;;;;;;;4990521;28;20387;-82
2022/11/02 11:37:57;;;;;;;7.47;2.17;;;;;;;;;;4990462;28;20385;-82
2022/11/02 11:40:23;;;;;;;7.55;1.80;;;;;;;;;;4990725;28;20401;-83
2022/11/02 11:42:58;;;;;;;8.00;2.22;;;;;;;;;;4990236;28;20387;-82
2022/11/02 11:45:37;;;;;;;5.03;1.63;;;;;;;;;;4990679;28;20375;-83
2022/11/02 11:48:09;;;;;;;9.35;2.00;;;;;;;;;;4990217;28;20904;-82
2022/11/02 11:50:35;;;;;;;7.10;1.70;;;;;;;;;;4983992;28;20383;-83
2022/11/02 11:53:13;;;;;;;7.13;2.00;;;;;;;;;;4990276;28;20385;-81
2022/11/02 11:55:48;;;;;;;6.65;2.00;;;;;;;;;;4988068;28;20383;-82
2022/11/02 11:58:29;;;;;;;4.28;1.65;;;;;;;;;;4988276;28;20422;-82
2022/11/02 12:01:26;;;;;;;;;;;;;;;;;;;;;
2022/11/02 12:03:59;;;;;;;5.38;1.77;;;;;;;;;;5019215;28;20378;-82
2022/11/02 12:06:25;;;;;;;6.13;2.00;;;;;;;;;;5031019;28;20866;-82
2022/11/02 12:08:54;;;;;;;5.43;1.73;;;;;;;;;;5034975;28;20402;-82
2022/11/02 12:11:46;;;;;;;6.28;2.05;;;;;;;;;;5034907;28;20387;-82
2022/11/02 12:14:21;;;;;;;6.55;2.00;;;;;;;;;;5019444;28;20391;-83
2022/11/02 12:16:47;;;;;;;4.82;1.73;;;;;;;;;;5034936;28;20391;-83
2022/11/02 12:19:31;;;;;;;6.65;2.00;;;;;;;;;;5028124;28;20473;-82
2022/11/02 12:22:33;;;;;;;6.50;2.05;;;;;;;;;;5019279;28;20367;-83
2022/11/02 12:25:25;;;;;;;5.22;1.80;;;;;;;;;;5035169;28;20856;-83
2022/11/02 12:27:57;;;;;;;5.93;1.67;;;;;;;;;;5019221;28;20445;-83
2022/11/02 12:30:43;;;;;;;6.32;2.30;;;;;;;;;;5034599;28;20459;-83
2022/11/02 12:33:33;;;;;;;6.85;1.73;;;;;;;;;;5003746;28;20387;-84
2022/11/02 12:36:02;;;;;;;4.65;1.60;;;;;;;;;;5034681;28;20379;-84
2022/11/02 12:38:36;;;;;;;5.30;1.77;;;;;;;;;;5034521;28;20562;-83
2022/11/02 12:41:21;;;;;;;6.65;1.75;;;;;;;;;;5034634;28;20383;-84
2022/11/02 12:43:48;;;;;;;7.35;1.70;;;;;;;;;;5034426;28;20376;-84
2022/11/02 12:46:33;;;;;;;4.90;1.80;;;;;;;;;;5034401;28;20481;-82
2022/11/02 12:49:21;;;;;;;6.83;2.00;;;;;;;;;;5034100;28;20482;-84
2022/11/02 12:51:52;;;;;;;8.57;2.70;;;;;;;;;;5034518;28;20403;-83
2022/11/02 12:54:23;;;;;;;5.43;2.20;;;;;;;;;;5034485;28;20387;-84
2022/11/02 12:56:50;;;;;;;7.63;1.92;;;;;;;;;;5034054;28;20388;-84
2022/11/02 12:59:27;;;;;;;6.85;1.98;;;;;;;;;;5034138;28;20403;-83
2022/11/02 13:02:19;;;;;;;8.32;1.88;;;;;;;;;;5025774;28;20872;-84
2022/11/02 13:04:51;;;;;;;7.93;1.90;;;;;;;;;;5032095;28;20490;-83
2022/11/02 13:07:40;;;;;;;4.20;2.20;;;;;;;;;;5033941;28;20375;-83
2022/11/02 13:10:14;;;;;;;7.15;2.40;;;;;;;;;;5033300;28;20383;-84
2022/11/02 13:12:41;;;;;;;6.57;2.15;;;;;;;;;;5033859;28;20849;-84
2022/11/02 13:15:13;;;;;;;5.03;1.70;;;;;;;;;;5034081;28;20423;-84
2022/11/02 13:17:57;;;;;;;6.57;1.83;;;;;;;;;;5033917;28;20394;-83
2022/11/02 13:20:33;;;;;;;6.38;1.85;;;;;;;;;;5033642;28;20390;-83
2022/11/02 13:23:22;;;;;;;6.32;1.80;;;;;;;;;;5033691;28;20398;-84
2022/11/02 13:25:53;;;;;;;5.95;1.80;;;;;;;;;;5028298;28;20777;-84
2022/11/02 13:28:41;;;;;;;7.65;1.80;;;;;;;;;;5033737;28;20379;-84
2022/11/02 13:31:11;;;;;;;6.00;2.00;;;;;;;;;;5033666;28;20941;-84
2022/11/02 13:33:44;;;;;;;8.40;1.63;;;;;;;;;;5025715;28;20390;-84
2022/11/02 13:36:13;;;;;;;5.65;1.95;;;;;;;;;;5033455;28;20392;-84
2022/11/02 13:38:45;;;;;;;6.57;1.85;;;;;;;;;;5031619;28;20460;-84
2022/11/02 13:41:19;;;;;;;6.47;1.63;;;;;;;;;;5031583;28;20375;-84
2022/11/02 13:44:04;;;;;;;6.68;1.90;;;;;;;;;;5021234;28;20383;-84
2022/11/02 13:46:30;;;;;;;6.38;1.95;;;;;;;;;;5033199;28;20748;-84
2022/11/02 13:49:04;;;;;;;7.97;1.92;;;;;;;;;;5033260;28;20383;-84
2022/11/02 13:51:29;;;;;;;6.60;1.70;;;;;;;;;;5033194;28;20872;-86
2022/11/02 13:53:59;;;;;;;7.25;2.00;;;;;;;;;;5020692;28;20455;-84
2022/11/02 13:56:38;;;;;;;6.32;1.65;;;;;;;;;;5019353;28;20408;-82
2022/11/02 13:59:06;;;;;;;5.50;1.63;;;;;;;;;;5026293;28;20887;-82
2022/11/02 14:01:35;;;;;;;5.22;1.70;;;;;;;;;;5013434;28;20408;-83
2022/11/02 14:04:12;;;;;;;7.18;1.50;;;;;;;;;;5024752;28;20386;-84
2022/11/02 14:06:44;;;;;;;7.18;1.70;;;;;;;;;;5043382;28;20387;-84
2022/11/02 14:09:13;;;;;;;5.90;1.92;;;;;;;;;;5043118;28;20440;-84
2022/11/02 14:11:39;;;;;;;7.35;1.85;;;;;;;;;;5039286;28;20387;-84
2022/11/02 14:14:07;;;;;;;4.53;1.73;;;;;;;;;;5032936;28;20485;-84
2022/11/02 14:16:45;;;;;;;6.63;1.95;;;;;;;;;;5033086;28;20737;-83
2022/11/02 14:19:21;;;;;;;5.95;1.65;;;;;;;;;;5032502;28;20426;-84
2022/11/02 14:21:56;;;;;;;5.75;2.00;;;;;;;;;;5032939;28;20386;-84
2022/11/02 14:27:02;;;;;;;5.82;1.65;;;;;;;;;;5021017;28;20721;-83
2022/11/02 14:29:46;;;;;;;6.93;1.75;;;;;;;;;;5032790;28;20436;-84
2022/11/02 14:32:22;;;;;;;5.80;1.60;;;;;;;;;;5025493;28;20472;-84
2022/11/02 14:34:51;;;;;;;5.57;1.67;;;;;;;;;;5030614;28;20750;-84
2022/11/02 14:37:30;;;;;;;4.50;1.80;;;;;;;;;;5032375;28;20383;-84
2022/11/02 14:40:03;;;;;;;4.95;1.77;;;;;;;;;;5032256;28;20414;-84
2022/11/02 14:42:29;;;;;;;6.20;1.70;;;;;;;;;;5032381;28;20402;-84
2022/11/02 14:45:07;;;;;;;4.53;1.70;;;;;;;;;;5032562;28;20367;-84
2022/11/02 14:47:36;;;;;;;6.55;1.83;;;;;;;;;;5032551;28;20426;-83
2022/11/02 14:50:14;;;;;;;5.85;2.17;;;;;;;;;;5031994;28;20386;-83
2022/11/02 14:52:53;;;;;;;5.13;1.73;;;;;;;;;;5014603;28;20391;-84
2022/11/02 14:55:31;;;;;;;6.50;1.90;;;;;;;;;;5032064;28;20387;-84
2022/11/02 14:58:08;;;;;;;6.15;1.70;;;;;;;;;;5017848;28;20367;-84
2022/11/02 15:00:39;;;;;;;6.60;1.75;;;;;;;;;;5032204;28;20387;-83
2022/11/02 15:03:07;;;;;;;5.60;1.88;;;;;;;;;;5030681;28;20932;-84
2022/11/02 15:05:37;;;;;;;5.95;1.45;;;;;;;;;;5031887;28;20387;-83
2022/11/02 15:08:06;;;;;;;7.80;1.90;;;;;;;;;;5031296;28;20380;-84
2022/11/02 15:10:32;;;;;;;6.47;1.95;;;;;;;;;;5031494;28;20414;-83
2022/11/02 15:13:16;;;;;;;4.45;1.60;;;;;;;;;;5032049;28;20383;-84
2022/11/02 15:15:42;;;;;;;5.00;1.52;;;;;;;;;;5032005;28;20710;-83
2022/11/02 15:18:33;;;;;;;5.65;1.55;;;;;;;;;;5032020;28;20386;-84
2022/11/02 15:21:11;;;;;;;6.03;1.70;;;;;;;;;;5031805;28;20389;-84
2022/11/02 15:23:43;;;;;;;6.68;2.08;;;;;;;;;;5032231;28;20390;-84
2022/11/02 15:26:13;;;;;;;5.43;1.92;;;;;;;;;;5031921;28;20387;-84
2022/11/02 15:28:39;;;;;;;4.82;1.70;;;;;;;;;;5032319;28;20393;-83
2022/11/02 15:31:13;;;;;;;4.45;1.77;;;;;;;;;;5032010;28;20409;-85
2022/11/02 15:33:43;;;;;;;7.28;2.08;;;;;;;;;;5016960;28;20877;-84
2022/11/02 15:36:20;;;;;;;6.65;2.22;;;;;;;;;;4999828;28;20404;-84
2022/11/02 15:38:50;;;;;;;5.35;2.20;;;;;;;;;;5020421;28;20497;-84
2022/11/02 15:41:35;;;;;;;6.00;2.30;;;;;;;;;;5044498;28;20383;-85
2022/11/02 15:44:01;;;;;;;5.50;2.30;;;;;;;;;;5047464;28;20860;-84
2022/11/02 15:46:27;;;;;;;6.00;2.60;;;;;;;;;;5055440;28;20414;-84
2022/11/02 15:49:01;;;;;;;5.40;2.75;;;;;;;;;;5048114;28;20379;-85
2022/11/02 15:51:32;;;;;;;7.97;2.67;;;;;;;;;;5035386;28;20394;-84
2022/11/02 15:54:08;;;;;;;6.53;2.40;;;;;;;;;;5035925;28;20371;-85
2022/11/02 15:57:00;;;;;;;8.07;2.65;;;;;;;;;;5032736;28;20436;-85
2022/11/02 15:59:29;;;;;;;6.68;2.70;;;;;;;;;;5009277;28;20406;-85
2022/11/02 16:02:19;;;;;;;9.57;2.85;;;;;;;;;;5017429;28;20900;-85
2022/11/02 16:04:46;;;;;;;7.93;2.20;;;;;;;;;;5029765;28;20388;-85
2022/11/02 16:07:16;;;;;;;6.15;2.20;;;;;;;;;;5031636;28;20424;-85
2022/11/02 16:09:43;;;;;;;7.15;2.20;;;;;;;;;;5017076;28;20392;-86
2022/11/02 16:12:18;;;;;;;6.10;2.42;;;;;;;;;;5014092;28;20403;-85
2022/11/02 16:14:45;;;;;;;7.10;2.20;;;;;;;;;;5016382;28;20391;-85
2022/11/02 16:17:18;;;;;;;9.70;2.72;;;;;;;;;;5015807;28;20419;-85
2022/11/02 16:19:48;;;;;;;8.00;2.92;;;;;;;;;;5017729;28;20490;-85
2022/11/02 16:22:19;;;;;;;5.72;2.25;;;;;;;;;;5013495;28;20391;-85
2022/11/02 16:24:46;;;;;;;5.57;2.40;;;;;;;;;;5019846;28;20384;-85
2022/11/02 16:27:12;;;;;;;6.38;2.22;;;;;;;;;;5023627;28;20807;-85
2022/11/02 16:29:39;;;;;;;7.00;2.45;;;;;;;;;;5031169;28;20396;-85
2022/11/02 16:32:09;;;;;;;8.02;3.08;;;;;;;;;;5032541;28;20436;-85
2022/11/02 16:34:35;;;;;;;6.40;2.70;;;;;;;;;;5014597;28;20425;-85
2022/11/02 16:37:02;;;;;;;6.82;2.78;;;;;;;;;;5013897;28;20468;-85
2022/11/02 16:39:33;;;;;;;7.18;2.75;;;;;;;;;;5016476;28;20503;-85
2022/11/02 16:42:00;;;;;;;8.00;2.80;;;;;;;;;;5023953;28;20388;-86
2022/11/02 16:44:29;;;;;;;8.57;3.65;;;;;;;;;;5026939;28;20709;-85
2022/11/02 16:47:10;;;;;;;5.45;3.13;;;;;;;;;;5034414;28;20387;-85
2022/11/02 16:49:51;;;;;;;6.68;3.95;;;;;;;;;;5033124;28;20395;-85
2022/11/02 16:52:34;;;;;;;6.30;3.20;;;;;;;;;;5028688;28;20425;-83
2022/11/02 16:55:00;;;;;;;5.15;2.60;;;;;;;;;;5032333;28;20383;-83
2022/11/02 16:57:30;;;;;;;5.97;2.53;;;;;;;;;;5028394;28;20436;-83
2022/11/02 16:59:57;;;;;;;5.78;2.67;;;;;;;;;;5028986;28;20912;-83
2022/11/02 17:02:28;;;;;;;5.93;2.70;;;;;;;;;;5033985;28;20407;-82
2022/11/02 17:04:55;;;;;;;8.73;4.03;;;;;;;;;;5034160;28;20378;-83
2022/11/02 17:07:23;;;;;;;7.75;3.70;;;;;;;;;;5034070;28;20408;-83
2022/11/02 17:09:52;;;;;;;8.03;3.83;;;;;;;;;;5033967;28;20417;-83
2022/11/02 17:12:18;;;;;;;6.30;3.40;;;;;;;;;;5033649;28;20538;-82
2022/11/02 17:14:46;;;;;;;9.07;3.88;;;;;;;;;;5027456;28;20397;-83
2022/11/02 17:17:24;;;;;;;10.88;4.53;;;;;;;;;;5020207;28;20882;-82
2022/11/02 17:20:10;;;;;;;8.40;4.40;;;;;;;;;;5019434;28;20414;-83
2022/11/02 17:22:37;;;;;;;8.85;4.20;;;;;;;;;;5033719;28;20380;-82
2022/11/02 17:25:10;;;;;;;5.82;3.72;;;;;;;;;;5033768;28;20383;-82
2022/11/02 17:27:36;;;;;;;8.70;4.25;;;;;;;;;;5028345;28;20428;-82
2022/11/02 17:30:02;;;;;;;7.83;3.80;;;;;;;;;;5022884;28;20772;-82
2022/11/02 17:32:28;;;;;;;8.60;2.83;;;;;;;;;;5021888;28;20402;-83
2022/11/02 17:34:57;;;;;;;9.20;4.45;;;;;;;;;;5032312;28;20407;-82
2022/11/02 17:37:30;;;;;;;12.68;4.35;;;;;;;;;;5006214;28;20755;-82
2022/11/02 17:39:59;;;;;;;6.53;3.30;;;;;;;;;;5025431;28;20460;-83
2022/11/02 17:45:29;;;;;;;6.07;3.83;;;;;;;;;;5033584;28;20379;-83
2022/11/02 17:47:55;;;;;;;8.00;2.65;;;;;;;;;;5040670;28;20379;-83
2022/11/02 17:50:22;;;;;;;6.78;3.13;;;;;;;;;;5025474;28;20393;-83
2022/11/02 17:52:49;;;;;;;9.98;2.90;;;;;;;;;;5035694;28;20745;-83
2022/11/02 17:55:20;;;;;;;6.53;2.80;;;;;;;;;;5027038;28;20555;-83
2022/11/02 17:57:46;;;;;;;6.68;2.90;;;;;;;;;;5025984;28;20394;-82
2022/11/02 18:00:12;;;;;;;8.07;3.55;;;;;;;;;;5031415;28;20411;-83
2022/11/02 18:02:40;;;;;;;8.95;4.47;;;;;;;;;;5026605;28;20478;-83
2022/11/02 18:05:22;;;;;;;5.68;2.83;;;;;;;;;;5022790;28;20439;-83
2022/11/02 18:07:49;;;;;;;11.80;4.75;;;;;;;;;;5032395;28;20376;-82
2022/11/02 18:10:15;;;;;;;6.53;3.38;;;;;;;;;;5027620;28;20385;-82
2022/11/02 18:12:41;;;;;;;8.13;3.25;;;;;;;;;;5016059;28;20861;-82
2022/11/02 18:15:09;;;;;;;7.20;3.75;;;;;;;;;;5014824;28;20389;-83
2022/11/02 18:17:35;;;;;;;6.15;3.72;;;;;;;;;;5029154;28;20845;-82
2022/11/02 18:20:01;;;;;;;10.32;5.22;;;;;;;;;;5029597;28;20450;-82
2022/11/02 18:22:27;;;;;;;6.32;4.57;;;;;;;;;;5025710;28;20776;-81
2022/11/02 18:24:53;;;;;;;7.53;5.32;;;;;;;;;;5019318;28;20418;-84
2022/11/02 18:27:19;;;;;;;7.90;5.45;;;;;;;;;;5026287;28;20378;-83
2022/11/02 18:29:44;;;;;;;8.40;6.07;;;;;;;;;;5008080;28;20744;-83
2022/11/02 18:32:14;;;;;;;7.53;5.93;;;;;;;;;;5008636;28;20487;-83
2022/11/02 18:34:39;;;;;;;9.88;5.78;;;;;;;;;;5007532;28;20406;-83
2022/11/02 18:37:09;;;;;;;7.28;5.30;;;;;;;;;;5011429;28;20753;-81
2022/11/02 18:39:35;;;;;;;9.57;6.60;;;;;;;;;;5007305;28;20436;-81
2022/11/02 18:42:01;;;;;;;9.73;6.38;;;;;;;;;;5005375;28;20431;-81
2022/11/02 18:44:27;;;;;;;8.80;5.65;;;;;;;;;;5015729;28;20449;-82
2022/11/02 18:46:53;;;;;;;6.43;5.20;;;;;;;;;;5023480;28;20430;-82
2022/11/02 18:49:19;;;;;;;6.65;5.18;;;;;;;;;;5019357;28;20899;-82
2022/11/02 18:51:46;;;;;;;8.68;5.60;;;;;;;;;;5022324;28;20529;-82
2022/11/02 18:54:13;;;;;;;7.80;4.95;;;;;;;;;;5022466;28;20375;-82
2022/11/02 18:56:39;;;;;;;9.43;5.20;;;;;;;;;;5020586;28;20400;-82
2022/11/02 18:59:05;;;;;;;13.32;10.25;;;;;;;;;;5013568;28;20501;-82
2022/11/02 19:01:31;;;;;;;8.45;6.28;;;;;;;;;;5018790;28;22781;-82
2022/11/02 19:03:58;;;;;;;10.70;7.53;;;;;;;;;;5024558;28;20455;-82
2022/11/02 19:09:20;;;;;;;8.82;6.57;;;;;;;;;;5023490;28;20383;-82
2022/11/02 19:12:07;;;;;;;7.50;6.10;;;;;;;;;;5008115;28;20416;-82
2022/11/02 19:14:34;;;;;;;8.10;6.15;;;;;;;;;;5015257;28;20390;-82
2022/11/02 19:17:01;;;;;;;8.95;6.25;;;;;;;;;;5008074;28;20420;-82
2022/11/02 19:19:30;;;;;;;9.70;5.80;;;;;;;;;;5005391;28;20406;-82
2022/11/02 19:21:56;;;;;;;9.67;5.90;;;;;;;;;;5010591;28;20922;-82
2022/11/02 19:24:22;;;;;;;7.35;5.25;;;;;;;;;;5010493;28;20445;-82
2022/11/02 19:27:09;;;;;;;7.35;5.13;;;;;;;;;;5021638;28;20413;-82
2022/11/02 19:29:40;;;;;;;7.20;5.28;;;;;;;;;;5012814;28;20944;-82
2022/11/02 19:32:06;;;;;;;7.53;5.40;;;;;;;;;;5007372;28;20758;-82
2022/11/02 19:34:35;;;;;;;6.88;5.35;;;;;;;;;;5006019;28;22182;-82
2022/11/02 19:37:05;;;;;;;8.80;6.00;;;;;;;;;;5011198;28;20402;-82
2022/11/02 19:39:31;;;;;;;9.60;6.10;;;;;;;;;;5001216;28;20414;-82
2022/11/02 19:41:57;;;;;;;10.80;6.07;;;;;;;;;;5007786;28;20899;-82
2022/11/02 19:44:26;;;;;;;10.93;6.30;;;;;;;;;;5007356;28;20457;-81
2022/11/02 19:46:52;;;;;;;9.02;6.30;;;;;;;;;;5016365;28;20405;-81
2022/11/02 19:49:18;;;;;;;8.88;6.70;;;;;;;;;;5028163;28;20386;-81
2022/11/02 19:51:44;;;;;;;9.52;7.05;;;;;;;;;;5029669;28;20474;-81
2022/11/02 19:54:10;;;;;;;9.70;7.82;;;;;;;;;;5029743;28;20422;-81
2022/11/02 19:56:37;;;;;;;9.10;6.90;;;;;;;;;;5028911;28;20440;-81
2022/11/02 19:59:03;;;;;;;9.65;5.88;;;;;;;;;;5026516;28;20473;-81
2022/11/02 20:01:34;;;;;;;6.65;5.28;;;;;;;;;;5027616;28;20414;-82
2022/11/02 20:04:00;;;;;;;7.57;5.53;;;;;;;;;;5024076;28;20379;-82
2022/11/02 20:06:45;;;;;;;8.02;4.90;;;;;;;;;;5031409;28;20383;-82
2022/11/02 20:09:15;;;;;;;8.23;6.18;;;;;;;;;;5029368;28;20454;-82
2022/11/02 20:11:43;;;;;;;8.88;5.80;;;;;;;;;;5031590;28;20739;-82
2022/11/02 20:14:10;;;;;;;7.13;5.37;;;;;;;;;;5031373;28;20387;-82